createdAt,value
2018-09-22T00:00:49.593Z,15.40
2018-09-22T00:03:17.231Z,15.20
2018-09-22T00:05:44.206Z,15.20
2018-09-22T00:08:11.200Z,15.20
2018-09-22T00:10:38.191Z,15.20
2018-09-22T00:13:05.163Z,15.20
2018-09-22T00:15:32.215Z,15.30
2018-09-22T00:17:59.189Z,15.20
2018-09-22T00:20:26.218Z,15.20
2018-09-22T00:22:53.214Z,15.10
2018-09-22T00:25:20.195Z,15.20
2018-09-22T00:27:47.192Z,15.10
2018-09-22T00:30:14.574Z,15.10
2018-09-22T00:32:41.551Z,15.10
2018-09-22T00:35:08.555Z,15.10
2018-09-22T00:37:35.631Z,15.00
2018-09-22T00:40:02.610Z,15.00
2018-09-22T00:42:29.634Z,14.90
2018-09-22T00:44:56.547Z,15.00
2018-09-22T00:47:23.510Z,14.90
2018-09-22T00:49:50.477Z,14.80
2018-09-22T00:52:17.451Z,14.80
2018-09-22T00:54:44.439Z,14.90
2018-09-22T00:57:11.384Z,14.80
2018-09-22T00:59:38.369Z,14.70
2018-09-22T01:02:05.735Z,14.60
2018-09-22T01:04:32.717Z,14.60
2018-09-22T01:06:59.743Z,14.60
2018-09-22T01:09:26.676Z,14.60
2018-09-22T01:11:53.642Z,14.50
2018-09-22T01:14:20.631Z,14.60
2018-09-22T01:16:47.616Z,14.70
2018-09-22T01:19:14.571Z,14.60
2018-09-22T01:21:41.562Z,14.60
2018-09-22T01:24:08.515Z,14.50
2018-09-22T01:26:35.489Z,14.50
2018-09-22T01:29:02.473Z,14.50
2018-09-22T01:31:29.949Z,14.50
2018-09-22T01:33:56.913Z,14.50
2018-09-22T01:36:23.878Z,14.40
2018-09-22T01:38:50.870Z,14.40
2018-09-22T01:41:17.856Z,14.40
2018-09-22T01:43:45.639Z,14.40
2018-09-22T01:46:13.944Z,14.30
2018-09-22T01:48:40.932Z,14.40
2018-09-22T01:51:07.906Z,14.40
2018-09-22T01:53:34.914Z,14.40
2018-09-22T01:56:01.884Z,14.30
2018-09-22T01:58:28.872Z,14.30
2018-09-22T02:00:55.865Z,14.50
2018-09-22T02:03:22.846Z,14.50
2018-09-22T02:05:49.803Z,12.60
2018-09-22T02:08:16.777Z,14.40
2018-09-22T02:10:43.898Z,14.30
2018-09-22T02:13:10.787Z,14.20
2018-09-22T02:15:37.838Z,14.10
2018-09-22T02:18:04.853Z,14.10
2018-09-22T02:20:31.933Z,14.30
2018-09-22T02:22:58.946Z,14.20
2018-09-22T02:25:26.002Z,14.30
2018-09-22T02:27:53.128Z,14.30
2018-09-22T02:30:20.158Z,14.30
2018-09-22T02:32:47.745Z,14.10
2018-09-22T02:35:14.751Z,14.20
2018-09-22T02:37:41.747Z,14.10
2018-09-22T02:40:08.755Z,14.20
2018-09-22T02:42:35.707Z,14.20
2018-09-22T02:45:02.708Z,14.10
2018-09-22T02:47:29.699Z,14.00
2018-09-22T02:49:56.695Z,14.00
2018-09-22T02:52:23.717Z,13.90
2018-09-22T02:54:50.715Z,13.80
2018-09-22T02:57:17.681Z,13.80
2018-09-22T02:59:44.698Z,13.60
2018-09-22T03:02:12.270Z,13.70
2018-09-22T03:04:39.080Z,13.60
2018-09-22T03:07:06.103Z,13.70
2018-09-22T03:09:33.121Z,13.70
2018-09-22T03:12:00.086Z,13.60
2018-09-22T03:14:27.065Z,13.70
2018-09-22T03:16:54.036Z,13.50
2018-09-22T03:19:21.002Z,13.50
2018-09-22T03:21:48.007Z,13.50
2018-09-22T03:24:14.974Z,13.50
2018-09-22T03:26:41.927Z,13.50
2018-09-22T03:29:08.919Z,13.60
2018-09-22T03:31:35.920Z,13.50
2018-09-22T03:34:03.227Z,13.40
2018-09-22T03:36:30.219Z,13.40
2018-09-22T03:38:57.198Z,13.50
2018-09-22T03:41:24.158Z,13.40
2018-09-22T03:43:51.156Z,13.20
2018-09-22T03:46:18.132Z,13.20
2018-09-22T03:48:45.071Z,13.20
2018-09-22T03:51:12.051Z,13.10
2018-09-22T03:53:39.015Z,13.30
2018-09-22T03:56:06.002Z,13.20
2018-09-22T03:58:32.990Z,13.20
2018-09-22T04:00:59.939Z,13.20
2018-09-22T04:03:26.902Z,13.10
2018-09-22T04:05:53.907Z,13.00
2018-09-22T04:08:20.887Z,13.20
2018-09-22T04:10:47.868Z,13.20
2018-09-22T04:13:14.857Z,13.30
2018-09-22T04:15:41.826Z,13.20
2018-09-22T04:18:08.790Z,13.20
2018-09-22T04:20:35.766Z,13.30
2018-09-22T04:23:02.738Z,13.10
2018-09-22T04:25:29.815Z,13.00
2018-09-22T04:27:56.814Z,13.00
2018-09-22T04:30:23.770Z,13.00
2018-09-22T04:32:50.725Z,12.90
2018-09-22T04:35:18.394Z,12.90
2018-09-22T04:37:45.393Z,12.90
2018-09-22T04:40:12.441Z,12.80
2018-09-22T04:42:39.442Z,12.90
2018-09-22T04:45:06.388Z,13.00
2018-09-22T04:47:33.387Z,12.90
2018-09-22T04:50:00.341Z,13.00
2018-09-22T04:52:27.309Z,13.20
2018-09-22T04:54:54.262Z,13.10
2018-09-22T04:57:21.246Z,13.10
2018-09-22T04:59:48.222Z,13.00
2018-09-22T05:02:15.163Z,13.00
2018-09-22T05:04:42.163Z,12.80
2018-09-22T05:07:09.133Z,12.70
2018-09-22T05:09:36.095Z,12.70
2018-09-22T05:12:03.074Z,12.80
2018-09-22T05:14:30.047Z,12.90
2018-09-22T05:16:57.003Z,12.90
2018-09-22T05:19:24.039Z,12.90
2018-09-22T05:21:50.992Z,12.90
2018-09-22T05:24:17.953Z,12.90
2018-09-22T05:26:45.187Z,13.00
2018-09-22T05:29:12.536Z,13.00
2018-09-22T05:31:39.128Z,12.90
2018-09-22T05:34:06.114Z,12.80
2018-09-22T05:36:33.270Z,12.90
2018-09-22T05:39:00.261Z,12.80
2018-09-22T05:41:27.234Z,12.80
2018-09-22T05:43:54.173Z,12.80
2018-09-22T05:46:21.134Z,12.80
2018-09-22T05:48:48.109Z,12.80
2018-09-22T05:51:15.052Z,12.80
2018-09-22T05:53:41.994Z,12.90
2018-09-22T05:56:08.949Z,12.90
2018-09-22T05:58:35.918Z,13.00
2018-09-22T06:01:02.874Z,13.00
2018-09-22T06:03:29.909Z,13.10
2018-09-22T06:05:57.104Z,13.00
2018-09-22T06:08:24.054Z,13.00
2018-09-22T06:10:51.041Z,13.00
2018-09-22T06:13:18.012Z,13.10
2018-09-22T06:15:44.982Z,13.20
2018-09-22T06:18:11.971Z,13.30
2018-09-22T06:20:38.923Z,13.60
2018-09-22T06:23:05.946Z,13.60
2018-09-22T06:25:32.887Z,13.60
2018-09-22T06:27:59.841Z,13.40
2018-09-22T06:30:26.804Z,13.30
2018-09-22T06:32:53.749Z,13.40
2018-09-22T06:35:20.700Z,13.50
2018-09-22T06:37:48.326Z,13.50
2018-09-22T06:40:15.297Z,14.80
2018-09-22T06:42:42.251Z,13.50
2018-09-22T06:45:09.334Z,13.60
2018-09-22T06:47:36.294Z,13.70
2018-09-22T06:50:03.262Z,13.90
2018-09-22T06:52:30.213Z,14.00
2018-09-22T06:54:57.226Z,14.10
2018-09-22T06:57:24.159Z,14.30
2018-09-22T06:59:51.107Z,14.30
2018-09-22T07:02:18.061Z,14.30
2018-09-22T07:04:45.098Z,14.60
2018-09-22T07:07:12.074Z,14.80
2018-09-22T07:09:39.152Z,15.10
2018-09-22T07:12:06.140Z,15.40
2018-09-22T07:14:33.146Z,15.30
2018-09-22T07:17:00.134Z,15.60
2018-09-22T07:19:27.131Z,15.80
2018-09-22T07:21:59.882Z,16.00
2018-09-22T07:24:26.942Z,15.50
2018-09-22T07:26:53.895Z,15.80
2018-09-22T07:29:20.898Z,15.90
2018-09-22T07:31:47.880Z,15.70
2018-09-22T07:34:14.841Z,15.60
2018-09-22T07:36:41.787Z,15.70
2018-09-22T07:39:10.618Z,15.90
2018-09-22T07:41:37.581Z,16.00
2018-09-22T07:44:04.575Z,16.10
2018-09-22T07:46:31.598Z,16.20
2018-09-22T07:48:58.657Z,15.70
2018-09-22T07:51:25.636Z,16.20
2018-09-22T07:53:52.642Z,16.20
2018-09-22T07:56:19.599Z,16.40
2018-09-22T07:58:46.554Z,16.40
2018-09-22T08:01:13.549Z,16.40
2018-09-22T08:03:54.940Z,16.60
2018-09-22T08:06:22.107Z,15.80
2018-09-22T08:08:49.074Z,16.50
2018-09-22T08:11:16.610Z,16.70
2018-09-22T08:13:43.120Z,16.90
2018-09-22T08:16:10.112Z,17.20
2018-09-22T08:18:37.090Z,17.10
2018-09-22T08:21:04.239Z,17.10
2018-09-22T08:23:31.201Z,17.30
2018-09-22T08:25:58.234Z,17.50
2018-09-22T08:28:25.212Z,17.30
2018-09-22T08:30:52.166Z,17.90
2018-09-22T08:33:19.206Z,18.00
2018-09-22T08:35:46.188Z,18.10
2018-09-22T08:38:13.163Z,18.00
2018-09-22T08:40:40.696Z,17.90
2018-09-22T08:43:07.666Z,18.10
2018-09-22T08:45:34.652Z,18.40
2018-09-22T08:48:01.707Z,18.20
2018-09-22T08:50:28.674Z,18.40
2018-09-22T08:52:55.622Z,18.40
2018-09-22T08:55:22.593Z,18.70
2018-09-22T08:57:49.569Z,18.90
2018-09-22T09:00:16.555Z,19.30
2018-09-22T09:02:43.573Z,19.40
2018-09-22T09:05:10.741Z,19.20
2018-09-22T09:07:37.614Z,19.50
2018-09-22T09:10:04.585Z,20.20
2018-09-22T09:12:31.541Z,21.50
2018-09-22T09:14:58.513Z,21.90
2018-09-22T09:17:25.511Z,21.50
2018-09-22T09:19:52.478Z,22.10
2018-09-22T09:22:19.520Z,22.10
2018-09-22T09:24:46.477Z,22.10
2018-09-22T09:27:13.595Z,21.70
2018-09-22T09:29:40.547Z,20.90
2018-09-22T09:32:07.653Z,19.90
2018-09-22T09:34:34.635Z,20.30
2018-09-22T09:37:01.616Z,20.30
2018-09-22T09:39:28.566Z,21.70
2018-09-22T09:41:55.982Z,20.70
2018-09-22T09:44:22.968Z,20.20
2018-09-22T09:46:49.993Z,21.00
2018-09-22T09:49:16.978Z,21.50
2018-09-22T09:51:43.963Z,21.60
2018-09-22T09:54:11.002Z,20.80
2018-09-22T09:56:37.998Z,20.20
2018-09-22T09:59:05.042Z,20.50
2018-09-22T10:01:32.094Z,21.50
2018-09-22T10:03:59.065Z,21.70
2018-09-22T10:06:26.054Z,21.40
2018-09-22T10:08:53.022Z,21.30
2018-09-22T10:11:20.058Z,21.00
2018-09-22T10:13:47.118Z,21.10
2018-09-22T10:16:14.123Z,21.50
2018-09-22T10:18:41.117Z,21.30
2018-09-22T10:21:08.068Z,21.60
2018-09-22T10:23:35.035Z,21.90
2018-09-22T10:26:02.074Z,21.70
2018-09-22T10:28:29.076Z,21.60
2018-09-22T10:30:56.029Z,21.40
2018-09-22T10:33:23.023Z,21.40
2018-09-22T10:35:49.997Z,21.80
2018-09-22T10:38:16.954Z,21.80
2018-09-22T10:40:43.969Z,21.80
2018-09-22T10:43:11.171Z,22.10
2018-09-22T10:45:38.162Z,22.10
2018-09-22T10:48:05.156Z,22.30
2018-09-22T10:50:32.119Z,21.80
2018-09-22T10:52:59.127Z,21.90
2018-09-22T10:55:26.094Z,22.10
2018-09-22T10:57:53.071Z,22.70
2018-09-22T11:00:20.100Z,22.20
2018-09-22T11:02:47.089Z,22.40
2018-09-22T11:05:17.721Z,22.70
2018-09-22T11:07:45.559Z,22.30
2018-09-22T11:10:12.755Z,21.50
2018-09-22T11:12:39.817Z,21.60
2018-09-22T11:15:06.857Z,22.20
2018-09-22T11:17:33.842Z,22.80
2018-09-22T11:20:00.869Z,23.20
2018-09-22T11:22:27.881Z,23.40
2018-09-22T11:24:54.912Z,23.30
2018-09-22T11:27:21.892Z,23.10
2018-09-22T11:29:48.911Z,23.20
2018-09-22T11:32:15.901Z,23.50
2018-09-22T11:34:42.896Z,22.90
2018-09-22T11:37:09.889Z,22.10
2018-09-22T11:39:36.918Z,22.20
2018-09-22T11:42:03.911Z,22.90
2018-09-22T11:44:31.370Z,24.00
2018-09-22T11:46:58.541Z,23.90
2018-09-22T11:49:25.562Z,23.80
2018-09-22T11:51:52.617Z,22.80
2018-09-22T11:54:20.114Z,23.60
2018-09-22T11:56:47.060Z,24.20
2018-09-22T11:59:14.037Z,24.50
2018-09-22T12:01:41.183Z,23.90
2018-09-22T12:04:08.101Z,25.00
2018-09-22T12:06:35.141Z,25.10
2018-09-22T12:09:02.088Z,24.40
2018-09-22T12:11:29.062Z,24.50
2018-09-22T12:13:56.227Z,24.80
2018-09-22T12:16:23.245Z,25.10
2018-09-22T12:18:50.241Z,25.10
2018-09-22T12:21:17.234Z,25.20
2018-09-22T12:23:44.988Z,24.90
2018-09-22T12:26:11.983Z,24.90
2018-09-22T12:28:39.180Z,23.80
2018-09-22T12:31:06.080Z,22.90
2018-09-22T12:33:33.042Z,23.10
2018-09-22T12:36:00.357Z,23.70
2018-09-22T12:38:27.346Z,24.10
2018-09-22T12:40:54.317Z,23.80
2018-09-22T12:43:21.287Z,23.90
2018-09-22T12:45:48.717Z,24.20
2018-09-22T12:48:15.712Z,23.80
2018-09-22T12:50:42.711Z,23.40
2018-09-22T12:53:09.708Z,22.70
2018-09-22T12:55:36.809Z,22.70
2018-09-22T12:58:03.774Z,23.20
2018-09-22T13:00:30.753Z,23.00
2018-09-22T13:02:57.742Z,23.30
2018-09-22T13:05:24.764Z,23.20
2018-09-22T13:07:51.788Z,23.20
2018-09-22T13:10:18.786Z,23.60
2018-09-22T13:15:26.797Z,23.10
2018-09-22T13:17:53.779Z,22.70
2018-09-22T13:20:20.835Z,22.40
2018-09-22T13:22:47.823Z,21.90
2018-09-22T13:25:14.786Z,21.80
2018-09-22T13:27:41.749Z,21.80
2018-09-22T13:30:08.784Z,21.70
2018-09-22T13:32:35.798Z,22.20
2018-09-22T13:35:02.855Z,21.50
2018-09-22T13:37:29.857Z,22.10
2018-09-22T13:39:56.814Z,22.50
2018-09-22T13:42:23.809Z,23.00
2018-09-22T13:44:50.809Z,23.50
2018-09-22T13:47:18.107Z,23.30
2018-09-22T13:49:45.098Z,23.10
2018-09-22T13:52:12.104Z,23.00
2018-09-22T13:54:39.090Z,23.00
2018-09-22T13:57:06.192Z,22.50
2018-09-22T13:59:33.210Z,22.20
2018-09-22T14:02:00.195Z,22.30
2018-09-22T14:04:27.177Z,22.10
2018-09-22T14:06:54.179Z,21.80
2018-09-22T14:09:21.506Z,22.20
2018-09-22T14:11:48.321Z,22.60
2018-09-22T14:14:15.301Z,22.90
2018-09-22T14:16:42.535Z,22.70
2018-09-22T14:19:09.470Z,22.60
2018-09-22T14:21:36.709Z,21.90
2018-09-22T14:24:03.905Z,22.90
2018-09-22T14:26:30.923Z,22.10
2018-09-22T14:28:57.967Z,22.00
2018-09-22T14:31:25.017Z,21.20
2018-09-22T14:33:52.032Z,22.00
2018-09-22T14:36:19.013Z,21.90
2018-09-22T14:38:46.067Z,22.10
2018-09-22T14:41:13.027Z,22.10
2018-09-22T14:43:40.030Z,22.10
2018-09-22T14:46:07.002Z,22.30
2018-09-22T14:48:34.811Z,22.20
2018-09-22T14:51:02.762Z,22.20
2018-09-22T14:53:29.767Z,22.10
2018-09-22T14:55:56.722Z,22.10
2018-09-22T14:58:23.707Z,22.00
2018-09-22T15:00:50.926Z,21.80
2018-09-22T15:03:17.843Z,21.80
2018-09-22T15:05:45.007Z,21.60
2018-09-22T15:08:12.109Z,21.50
2018-09-22T15:10:39.067Z,21.50
2018-09-22T15:13:06.515Z,21.40
2018-09-22T15:15:33.555Z,21.10
2018-09-22T15:18:00.613Z,21.10
2018-09-22T15:20:27.768Z,20.00
2018-09-22T15:22:54.744Z,19.90
2018-09-22T15:25:21.719Z,21.00
2018-09-22T15:27:48.738Z,21.00
2018-09-22T15:30:15.684Z,21.00
2018-09-22T15:32:42.671Z,20.80
2018-09-22T15:35:09.720Z,20.70
2018-09-22T15:37:36.712Z,20.70
2018-09-22T15:40:03.914Z,20.60
2018-09-22T15:42:30.889Z,20.50
2018-09-22T15:44:57.839Z,20.10
2018-09-22T15:47:24.801Z,19.90
2018-09-22T15:49:52.170Z,20.00
2018-09-22T15:52:19.179Z,19.60
2018-09-22T15:54:46.062Z,20.00
2018-09-22T15:57:13.074Z,20.10
2018-09-22T15:59:40.057Z,20.90
2018-09-22T16:02:07.042Z,19.90
2018-09-22T16:04:34.039Z,19.80
2018-09-22T16:07:01.014Z,19.90
2018-09-22T16:09:28.035Z,19.70
2018-09-22T16:11:55.037Z,19.30
2018-09-22T16:14:22.005Z,19.40
2018-09-22T16:16:48.958Z,19.40
2018-09-22T16:19:15.955Z,19.40
2018-09-22T16:21:42.924Z,19.50
2018-09-22T16:24:09.862Z,19.40
2018-09-22T16:26:36.836Z,19.40
2018-09-22T16:29:03.822Z,18.90
2018-09-22T16:31:30.801Z,19.00
2018-09-22T16:33:57.793Z,19.00
2018-09-22T16:36:24.742Z,19.20
2018-09-22T16:38:51.709Z,19.00
2018-09-22T16:41:18.741Z,18.80
2018-09-22T16:43:45.659Z,18.60
2018-09-22T16:46:12.614Z,18.60
2018-09-22T16:48:39.639Z,18.40
2018-09-22T16:51:06.769Z,18.30
2018-09-22T16:53:33.729Z,18.30
2018-09-22T16:56:00.702Z,18.20
2018-09-22T16:58:27.733Z,18.20
2018-09-22T17:00:54.623Z,16.50
2018-09-22T17:03:21.623Z,18.20
2018-09-22T17:05:48.638Z,18.20
2018-09-22T17:08:15.594Z,18.10
2018-09-22T17:10:42.562Z,18.20
2018-09-22T17:13:09.595Z,18.00
2018-09-22T17:15:36.553Z,18.00
2018-09-22T17:18:03.529Z,17.80
2018-09-22T17:20:30.493Z,17.60
2018-09-22T17:22:57.522Z,18.40
2018-09-22T17:25:24.523Z,17.80
2018-09-22T17:27:51.539Z,17.80
2018-09-22T17:30:18.550Z,17.80
2018-09-22T17:32:45.450Z,18.00
2018-09-22T17:35:12.489Z,18.00
2018-09-22T17:37:39.562Z,18.10
2018-09-22T17:40:06.519Z,18.10
2018-09-22T17:42:33.470Z,18.10
2018-09-22T17:45:00.523Z,18.00
2018-09-22T17:47:27.597Z,18.10
2018-09-22T17:49:54.615Z,17.90
2018-09-22T17:52:22.053Z,16.80
2018-09-22T17:54:49.021Z,18.10
2018-09-22T17:57:16.090Z,18.10
2018-09-22T17:59:43.163Z,17.90
2018-09-22T18:02:10.145Z,17.80
2018-09-22T18:04:37.390Z,17.90
2018-09-22T18:07:04.400Z,17.80
2018-09-22T18:09:31.935Z,17.80
2018-09-22T18:11:58.394Z,18.00
2018-09-22T18:14:25.361Z,18.10
2018-09-22T18:16:52.367Z,17.90
2018-09-22T18:19:19.331Z,17.90
2018-09-22T18:21:46.271Z,18.00
2018-09-22T18:24:13.270Z,17.90
2018-09-22T18:26:40.214Z,17.80
2018-09-22T18:29:07.319Z,17.50
2018-09-22T18:31:34.278Z,17.30
2018-09-22T18:34:01.310Z,17.20
2018-09-22T18:36:28.193Z,17.20
2018-09-22T18:38:55.174Z,17.10
2018-09-22T18:41:22.152Z,17.00
2018-09-22T18:43:49.113Z,17.00
2018-09-22T18:46:16.083Z,17.00
2018-09-22T18:48:43.274Z,17.00
2018-09-22T18:51:10.263Z,17.00
2018-09-22T18:53:37.807Z,17.10
2018-09-22T18:56:04.793Z,17.00
2018-09-22T18:58:31.792Z,17.00
2018-09-22T19:00:58.726Z,17.10
2018-09-22T19:03:25.731Z,17.00
2018-09-22T19:05:52.691Z,16.80
2018-09-22T19:08:19.648Z,16.70
2018-09-22T19:10:46.596Z,16.70
2018-09-22T19:13:17.034Z,16.90
2018-09-22T19:15:48.212Z,16.90
2018-09-22T19:18:18.313Z,16.70
2018-09-22T19:20:51.024Z,16.70
2018-09-22T19:23:22.581Z,16.60
2018-09-22T19:25:53.254Z,16.60
2018-09-22T19:28:26.633Z,16.60
2018-09-22T19:30:55.646Z,16.50
2018-09-22T19:33:29.199Z,16.50
2018-09-22T19:36:02.511Z,16.50
2018-09-22T19:38:33.035Z,16.40
2018-09-22T19:41:03.383Z,16.50
2018-09-22T19:43:38.550Z,16.40
2018-09-22T19:46:11.165Z,16.40
2018-09-22T19:48:45.718Z,16.40
2018-09-22T19:51:15.096Z,15.00
2018-09-22T19:53:42.854Z,16.30
2018-09-22T19:56:10.142Z,16.30
2018-09-22T19:58:37.155Z,16.30
2018-09-22T20:01:04.107Z,16.10
2018-09-22T20:03:31.186Z,16.20
2018-09-22T20:05:58.141Z,16.30
2018-09-22T20:08:25.102Z,16.40
2018-09-22T20:10:52.213Z,16.20
2018-09-22T20:13:19.213Z,16.10
2018-09-22T20:15:46.151Z,16.10
2018-09-22T20:18:13.236Z,16.10
2018-09-22T20:20:40.202Z,16.10
2018-09-22T20:23:07.145Z,16.20
2018-09-22T20:25:34.185Z,16.10
2018-09-22T20:28:01.199Z,15.20
2018-09-22T20:30:28.211Z,16.10
2018-09-22T20:32:55.211Z,16.00
2018-09-22T20:35:22.308Z,16.00
2018-09-22T20:37:49.278Z,16.00
2018-09-22T20:40:16.447Z,15.90
2018-09-22T20:42:43.420Z,15.90
2018-09-22T20:45:10.395Z,16.00
2018-09-22T20:47:37.784Z,16.10
2018-09-22T20:50:04.710Z,16.00
2018-09-22T20:52:31.691Z,15.90
2018-09-22T20:55:01.959Z,16.00
2018-09-22T20:57:29.133Z,15.90
2018-09-22T20:59:56.002Z,15.40
2018-09-22T21:02:23.005Z,15.90
2018-09-22T21:04:49.909Z,15.90
2018-09-22T21:07:16.927Z,15.80
2018-09-22T21:09:44.904Z,15.70
2018-09-22T21:12:11.879Z,15.70
2018-09-22T21:14:39.014Z,15.70
2018-09-22T21:17:06.000Z,15.60
2018-09-22T21:19:32.999Z,15.40
2018-09-22T21:22:00.024Z,15.40
2018-09-22T21:24:28.678Z,15.50
2018-09-22T21:26:55.682Z,14.80
2018-09-22T21:29:22.663Z,15.60
2018-09-22T21:31:49.645Z,15.50
2018-09-22T21:34:16.618Z,15.50
2018-09-22T21:36:45.222Z,15.40
2018-09-22T21:39:12.230Z,15.40
2018-09-22T21:41:39.198Z,15.30
2018-09-22T21:44:06.241Z,15.30
2018-09-22T21:46:33.217Z,15.30
2018-09-22T21:49:00.210Z,15.30
2018-09-22T21:51:27.214Z,15.20
2018-09-22T21:53:54.639Z,15.10
2018-09-22T21:56:22.358Z,15.10
2018-09-22T21:58:49.386Z,15.20
2018-09-22T22:01:22.078Z,15.00
2018-09-22T22:03:49.757Z,15.00
2018-09-22T22:06:16.733Z,14.90
2018-09-22T22:08:43.722Z,14.80
2018-09-22T22:11:10.721Z,14.90
2018-09-22T22:13:37.670Z,14.80
2018-09-22T22:16:04.657Z,14.80
2018-09-22T22:18:31.667Z,14.80
2018-09-22T22:20:58.595Z,14.90
2018-09-22T22:23:26.055Z,14.80
2018-09-22T22:25:53.982Z,13.40
2018-09-22T22:28:21.786Z,14.80
2018-09-22T22:30:48.823Z,14.80
2018-09-22T22:33:15.877Z,14.90
2018-09-22T22:35:42.854Z,14.80
2018-09-22T22:38:09.850Z,14.70
2018-09-22T22:40:36.838Z,14.40
2018-09-22T22:43:03.805Z,14.70
2018-09-22T22:45:30.787Z,15.80
2018-09-22T22:47:57.781Z,14.80
2018-09-22T22:50:24.845Z,14.80
2018-09-22T22:52:53.138Z,14.70
2018-09-22T22:55:19.053Z,14.80
2018-09-22T22:57:46.522Z,14.70
2018-09-22T23:00:13.519Z,14.70
2018-09-22T23:02:40.496Z,13.00
2018-09-22T23:05:07.478Z,14.70
2018-09-22T23:07:34.459Z,14.50
2018-09-22T23:10:01.410Z,14.60
2018-09-22T23:12:28.404Z,14.60
2018-09-22T23:14:55.377Z,14.60
2018-09-22T23:17:22.739Z,14.50
2018-09-22T23:19:49.710Z,14.60
2018-09-22T23:22:16.690Z,14.60
2018-09-22T23:24:43.639Z,14.50
2018-09-22T23:27:10.598Z,14.70
2018-09-22T23:29:37.578Z,14.70
2018-09-22T23:32:04.529Z,14.10
2018-09-22T23:34:31.479Z,14.90
2018-09-22T23:36:58.451Z,15.00
2018-09-22T23:39:25.398Z,15.00
2018-09-22T23:41:52.368Z,15.00
2018-09-22T23:44:19.343Z,14.90
2018-09-22T23:46:46.310Z,14.90
2018-09-22T23:49:13.310Z,14.90
2018-09-22T23:51:40.277Z,15.00
2018-09-22T23:54:07.230Z,15.10
2018-09-22T23:56:34.190Z,15.00
2018-09-22T23:59:01.590Z,15.10
